sensor_id;sensor_type;location;lat;lon;timestamp;temperature;humidity
5150;DHT22;2593;52.466;13.436;2024-03-22T07:10:15;9.50;99.90
5150;DHT22;2593;52.466;13.436;2024-03-22T07:12:41;9.50;99.90
5150;DHT22;2593;52.466;13.436;2024-03-22T07:15:06;9.60;99.90
5150;DHT22;2593;52.466;13.436;2024-03-22T07:17:32;9.70;99.90
5150;DHT22;2593;52.466;13.436;2024-03-22T07:19:58;9.80;99.90
5150;DHT22;2593;52.466;13.436;2024-03-22T07:22:23;10.00;99.90
5150;DHT22;2593;52.466;13.436;2024-03-22T07:24:49;9.90;99.90
5150;DHT22;2593;52.466;13.436;2024-03-22T07:27:17;9.80;99.90
5150;DHT22;2593;52.466;13.436;2024-03-22T07:29:45;9.80;99.90
5150;DHT22;2593;52.466;13.436;2024-03-22T07:32:11;9.80;99.90
5150;DHT22;2593;52.466;13.436;2024-03-22T07:34:36;9.90;99.90
5150;DHT22;2593;52.466;13.436;2024-03-22T07:37:02;9.80;99.90
5150;DHT22;2593;52.466;13.436;2024-03-22T07:39:29;9.90;99.90
5150;DHT22;2593;52.466;13.436;2024-03-22T07:41:55;9.90;99.90
5150;DHT22;2593;52.466;13.436;2024-03-22T07:44:20;10.10;99.90
5150;DHT22;2593;52.466;13.436;2024-03-22T07:46:46;10.00;99.90
5150;DHT22;2593;52.466;13.436;2024-03-22T07:49:12;9.90;99.90
5150;DHT22;2593;52.466;13.436;2024-03-22T07:51:37;10.10;99.90
5150;DHT22;2593;52.466;13.436;2024-03-22T07:54:03;10.10;99.90
5150;DHT22;2593;52.466;13.436;2024-03-22T07:56:28;9.90;99.90
5150;DHT22;2593;52.466;13.436;2024-03-22T07:58:54;10.00;99.90
5150;DHT22;2593;52.466;13.436;2024-03-22T08:01:21;9.80;99.90
5150;DHT22;2593;52.466;13.436;2024-03-22T08:03:46;9.90;99.90
5150;DHT22;2593;52.466;13.436;2024-03-22T08:06:12;10.00;99.90
5150;DHT22;2593;52.466;13.436;2024-03-22T08:08:37;10.10;99.90
5150;DHT22;2593;52.466;13.436;2024-03-22T08:11:03;10.10;99.90
5150;DHT22;2593;52.466;13.436;2024-03-22T08:13:28;10.20;99.90
5150;DHT22;2593;52.466;13.436;2024-03-22T08:15:54;10.30;99.90
5150;DHT22;2593;52.466;13.436;2024-03-22T08:18:19;10.50;99.90
5150;DHT22;2593;52.466;13.436;2024-03-22T08:20:45;10.50;99.90
5150;DHT22;2593;52.466;13.436;2024-03-22T08:23:10;10.40;99.90
5150;DHT22;2593;52.466;13.436;2024-03-22T08:25:36;10.40;99.90
5150;DHT22;2593;52.466;13.436;2024-03-22T08:28:02;10.40;99.90
5150;DHT22;2593;52.466;13.436;2024-03-22T08:30:28;10.40;99.90
5150;DHT22;2593;52.466;13.436;2024-03-22T08:32:53;10.40;99.90
5150;DHT22;2593;52.466;13.436;2024-03-22T08:35:19;10.40;99.90
5150;DHT22;2593;52.466;13.436;2024-03-22T08:37:44;10.70;99.90
5150;DHT22;2593;52.466;13.436;2024-03-22T08:40:10;10.70;99.90
5150;DHT22;2593;52.466;13.436;2024-03-22T08:42:36;10.70;99.90
5150;DHT22;2593;52.466;13.436;2024-03-22T08:45:01;10.60;99.90
5150;DHT22;2593;52.466;13.436;2024-03-22T08:47:29;10.70;99.90
5150;DHT22;2593;52.466;13.436;2024-03-22T08:49:55;10.60;99.90
5150;DHT22;2593;52.466;13.436;2024-03-22T08:52:21;10.70;99.90
5150;DHT22;2593;52.466;13.436;2024-03-22T08:54:49;10.70;99.90
5150;DHT22;2593;52.466;13.436;2024-03-22T08:57:15;10.70;99.90
5150;DHT22;2593;52.466;13.436;2024-03-22T08:59:40;10.90;99.90
5150;DHT22;2593;52.466;13.436;2024-03-22T09:02:06;10.90;99.90
5150;DHT22;2593;52.466;13.436;2024-03-22T09:04:31;11.00;99.90
5150;DHT22;2593;52.466;13.436;2024-03-22T09:06:57;11.00;99.90
5150;DHT22;2593;52.466;13.436;2024-03-22T09:09:23;11.00;99.90
5150;DHT22;2593;52.466;13.436;2024-03-22T09:11:49;10.90;99.90
5150;DHT22;2593;52.466;13.436;2024-03-22T09:14:14;11.00;99.90
5150;DHT22;2593;52.466;13.436;2024-03-22T09:16:40;11.10;99.90
5150;DHT22;2593;52.466;13.436;2024-03-22T09:19:06;11.30;99.90
5150;DHT22;2593;52.466;13.436;2024-03-22T09:21:31;11.40;99.90
5150;DHT22;2593;52.466;13.436;2024-03-22T09:23:57;11.60;99.90
5150;DHT22;2593;52.466;13.436;2024-03-22T09:26:22;11.80;99.90
5150;DHT22;2593;52.466;13.436;2024-03-22T09:28:48;11.80;99.90
5150;DHT22;2593;52.466;13.436;2024-03-22T09:31:15;12.00;99.90
5150;DHT22;2593;52.466;13.436;2024-03-22T09:33:41;12.10;99.90
5150;DHT22;2593;52.466;13.436;2024-03-22T09:36:07;12.10;99.90
5150;DHT22;2593;52.466;13.436;2024-03-22T09:38:33;12.30;99.90
5150;DHT22;2593;52.466;13.436;2024-03-22T09:40:58;12.30;99.90
5150;DHT22;2593;52.466;13.436;2024-03-22T09:43:24;12.40;99.90
5150;DHT22;2593;52.466;13.436;2024-03-22T09:45:52;12.50;99.90
5150;DHT22;2593;52.466;13.436;2024-03-22T09:48:18;12.40;99.90
5150;DHT22;2593;52.466;13.436;2024-03-22T09:50:44;12.70;99.90
5150;DHT22;2593;52.466;13.436;2024-03-22T09:53:09;12.60;99.90
5150;DHT22;2593;52.466;13.436;2024-03-22T09:55:35;12.60;99.90
5150;DHT22;2593;52.466;13.436;2024-03-22T09:58:01;12.70;99.90
5150;DHT22;2593;52.466;13.436;2024-03-22T10:00:27;12.70;99.90
5150;DHT22;2593;52.466;13.436;2024-03-22T10:02:53;12.70;99.90
5150;DHT22;2593;52.466;13.436;2024-03-22T10:05:21;12.60;99.90
5150;DHT22;2593;52.466;13.436;2024-03-22T10:07:47;12.70;99.90
5150;DHT22;2593;52.466;13.436;2024-03-22T10:10:12;12.90;99.90
5150;DHT22;2593;52.466;13.436;2024-03-22T10:12:39;12.80;99.90
5150;DHT22;2593;52.466;13.436;2024-03-22T10:15:05;12.80;99.90
5150;DHT22;2593;52.466;13.436;2024-03-22T10:17:34;12.90;99.90
5150;DHT22;2593;52.466;13.436;2024-03-22T10:19:59;12.90;99.90
5150;DHT22;2593;52.466;13.436;2024-03-22T10:22:25;12.80;99.90
5150;DHT22;2593;52.466;13.436;2024-03-22T10:24:50;13.00;99.90
5150;DHT22;2593;52.466;13.436;2024-03-22T10:27:16;13.10;99.90
5150;DHT22;2593;52.466;13.436;2024-03-22T10:29:43;13.20;99.90
5150;DHT22;2593;52.466;13.436;2024-03-22T10:32:08;13.30;99.90
5150;DHT22;2593;52.466;13.436;2024-03-22T10:34:35;13.30;99.90
5150;DHT22;2593;52.466;13.436;2024-03-22T10:37:01;13.40;99.90
5150;DHT22;2593;52.466;13.436;2024-03-22T10:39:26;13.60;99.90
5150;DHT22;2593;52.466;13.436;2024-03-22T10:41:53;13.60;99.90
5150;DHT22;2593;52.466;13.436;2024-03-22T10:44:18;13.60;99.90
5150;DHT22;2593;52.466;13.436;2024-03-22T10:46:47;13.60;99.90
5150;DHT22;2593;52.466;13.436;2024-03-22T10:49:17;13.60;99.90
5150;DHT22;2593;52.466;13.436;2024-03-22T10:51:46;13.70;99.90
5150;DHT22;2593;52.466;13.436;2024-03-22T10:54:18;13.80;99.90
5150;DHT22;2593;52.466;13.436;2024-03-22T10:56:44;14.10;99.90
5150;DHT22;2593;52.466;13.436;2024-03-22T10:59:18;14.30;99.90
5150;DHT22;2593;52.466;13.436;2024-03-22T11:01:45;14.50;99.90
5150;DHT22;2593;52.466;13.436;2024-03-22T11:04:10;14.70;99.90
5150;DHT22;2593;52.466;13.436;2024-03-22T11:06:36;14.70;99.90
5150;DHT22;2593;52.466;13.436;2024-03-22T11:09:02;14.60;99.90
5150;DHT22;2593;52.466;13.436;2024-03-22T11:11:31;14.40;99.90
5150;DHT22;2593;52.466;13.436;2024-03-22T11:14:02;14.50;99.90
5150;DHT22;2593;52.466;13.436;2024-03-22T11:16:28;14.70;99.90
5150;DHT22;2593;52.466;13.436;2024-03-22T11:18:54;14.80;99.90
5150;DHT22;2593;52.466;13.436;2024-03-22T11:21:20;15.00;99.90
5150;DHT22;2593;52.466;13.436;2024-03-22T11:23:46;14.80;99.90
5150;DHT22;2593;52.466;13.436;2024-03-22T11:26:11;14.70;99.90
5150;DHT22;2593;52.466;13.436;2024-03-22T11:28:38;14.80;99.90
5150;DHT22;2593;52.466;13.436;2024-03-22T11:31:04;14.60;99.90
5150;DHT22;2593;52.466;13.436;2024-03-22T11:33:32;14.60;99.90
5150;DHT22;2593;52.466;13.436;2024-03-22T11:35:58;14.50;99.90
5150;DHT22;2593;52.466;13.436;2024-03-22T11:38:25;14.50;99.90
5150;DHT22;2593;52.466;13.436;2024-03-22T11:40:52;14.50;99.90
5150;DHT22;2593;52.466;13.436;2024-03-22T11:43:18;14.60;99.90
5150;DHT22;2593;52.466;13.436;2024-03-22T11:45:43;14.20;99.90
5150;DHT22;2593;52.466;13.436;2024-03-22T11:48:09;14.00;99.90
5150;DHT22;2593;52.466;13.436;2024-03-22T11:50:36;13.70;99.90
5150;DHT22;2593;52.466;13.436;2024-03-22T11:53:01;13.60;99.90
5150;DHT22;2593;52.466;13.436;2024-03-22T11:55:28;13.40;99.90
5150;DHT22;2593;52.466;13.436;2024-03-22T11:57:56;13.30;99.90
5150;DHT22;2593;52.466;13.436;2024-03-22T12:00:22;13.30;99.90
5150;DHT22;2593;52.466;13.436;2024-03-22T12:02:48;13.20;99.90
5150;DHT22;2593;52.466;13.436;2024-03-22T12:05:13;13.20;99.90
5150;DHT22;2593;52.466;13.436;2024-03-22T12:07:39;13.10;99.90
5150;DHT22;2593;52.466;13.436;2024-03-22T12:10:05;13.10;99.90
5150;DHT22;2593;52.466;13.436;2024-03-22T12:12:31;13.00;99.90
5150;DHT22;2593;52.466;13.436;2024-03-22T12:14:57;13.10;99.90
5150;DHT22;2593;52.466;13.436;2024-03-22T12:17:22;13.00;99.90
5150;DHT22;2593;52.466;13.436;2024-03-22T12:19:48;13.00;99.90
5150;DHT22;2593;52.466;13.436;2024-03-22T12:22:13;12.90;99.90
5150;DHT22;2593;52.466;13.436;2024-03-22T12:24:39;12.80;99.90
5150;DHT22;2593;52.466;13.436;2024-03-22T12:27:04;12.90;99.90
5150;DHT22;2593;52.466;13.436;2024-03-22T12:29:33;12.80;99.90
5150;DHT22;2593;52.466;13.436;2024-03-22T12:31:59;12.80;99.90
5150;DHT22;2593;52.466;13.436;2024-03-22T12:34:29;12.70;99.90
5150;DHT22;2593;52.466;13.436;2024-03-22T12:36:55;12.70;99.90
5150;DHT22;2593;52.466;13.436;2024-03-22T12:39:20;12.70;99.90
5150;DHT22;2593;52.466;13.436;2024-03-22T12:41:46;12.70;99.90
5150;DHT22;2593;52.466;13.436;2024-03-22T12:44:12;12.80;99.90
5150;DHT22;2593;52.466;13.436;2024-03-22T12:46:37;12.70;99.90
5150;DHT22;2593;52.466;13.436;2024-03-22T12:49:03;12.60;1.00
5150;DHT22;2593;52.466;13.436;2024-03-22T12:51:28;12.50;1.00
5150;DHT22;2593;52.466;13.436;2024-03-22T12:53:56;12.50;1.00
5150;DHT22;2593;52.466;13.436;2024-03-22T12:56:22;12.60;1.00
5150;DHT22;2593;52.466;13.436;2024-03-22T12:58:49;12.60;1.00
5150;DHT22;2593;52.466;13.436;2024-03-22T13:01:15;12.50;99.90
5150;DHT22;2593;52.466;13.436;2024-03-22T13:03:40;12.50;99.90
5150;DHT22;2593;52.466;13.436;2024-03-22T13:06:06;12.60;99.90
5150;DHT22;2593;52.466;13.436;2024-03-22T13:08:32;12.60;99.90
5150;DHT22;2593;52.466;13.436;2024-03-22T13:10:58;12.50;50.40
5150;DHT22;2593;52.466;13.436;2024-03-22T13:13:23;12.30;30.50
5150;DHT22;2593;52.466;13.436;2024-03-22T13:15:49;12.30;1.00
5150;DHT22;2593;52.466;13.436;2024-03-22T13:18:14;12.30;99.90
5150;DHT22;2593;52.466;13.436;2024-03-22T13:20:41;12.20;99.90
5150;DHT22;2593;52.466;13.436;2024-03-22T13:23:06;12.30;99.90
5150;DHT22;2593;52.466;13.436;2024-03-22T13:25:34;12.20;99.90
5150;DHT22;2593;52.466;13.436;2024-03-22T13:28:02;11.90;99.90
5150;DHT22;2593;52.466;13.436;2024-03-22T13:30:28;11.90;99.90
5150;DHT22;2593;52.466;13.436;2024-03-22T13:32:54;12.00;1.00
5150;DHT22;2593;52.466;13.436;2024-03-22T13:35:19;11.90;1.00
5150;DHT22;2593;52.466;13.436;2024-03-22T13:37:45;11.90;1.00
5150;DHT22;2593;52.466;13.436;2024-03-22T13:40:11;12.00;1.00
5150;DHT22;2593;52.466;13.436;2024-03-22T13:42:36;12.00;99.90
5150;DHT22;2593;52.466;13.436;2024-03-22T13:45:02;12.00;1.00
5150;DHT22;2593;52.466;13.436;2024-03-22T13:47:28;12.00;1.00
5150;DHT22;2593;52.466;13.436;2024-03-22T13:49:54;12.10;99.90
5150;DHT22;2593;52.466;13.436;2024-03-22T13:52:19;12.20;99.90
5150;DHT22;2593;52.466;13.436;2024-03-22T13:54:48;12.30;99.90
5150;DHT22;2593;52.466;13.436;2024-03-22T13:57:15;12.30;99.90
5150;DHT22;2593;52.466;13.436;2024-03-22T13:59:40;12.30;1.00
5150;DHT22;2593;52.466;13.436;2024-03-22T14:02:06;12.30;1.00
5150;DHT22;2593;52.466;13.436;2024-03-22T14:04:33;12.50;99.90
5150;DHT22;2593;52.466;13.436;2024-03-22T14:06:58;12.60;99.90
5150;DHT22;2593;52.466;13.436;2024-03-22T14:09:24;12.70;99.90
5150;DHT22;2593;52.466;13.436;2024-03-22T14:11:51;12.70;17.80
5150;DHT22;2593;52.466;13.436;2024-03-22T14:14:16;12.70;1.00
5150;DHT22;2593;52.466;13.436;2024-03-22T14:16:42;12.70;1.00
5150;DHT22;2593;52.466;13.436;2024-03-22T14:19:08;12.70;99.90
5150;DHT22;2593;52.466;13.436;2024-03-22T14:21:34;12.80;99.90
5150;DHT22;2593;52.466;13.436;2024-03-22T14:23:59;12.80;99.90
5150;DHT22;2593;52.466;13.436;2024-03-22T14:26:25;12.90;99.90
5150;DHT22;2593;52.466;13.436;2024-03-22T14:28:50;12.90;99.90
5150;DHT22;2593;52.466;13.436;2024-03-22T14:31:17;12.90;99.90
5150;DHT22;2593;52.466;13.436;2024-03-22T14:33:43;12.90;85.30
5150;DHT22;2593;52.466;13.436;2024-03-22T14:36:09;12.90;99.90
5150;DHT22;2593;52.466;13.436;2024-03-22T14:38:36;12.90;99.90
5150;DHT22;2593;52.466;13.436;2024-03-22T14:41:02;12.80;99.90
5150;DHT22;2593;52.466;13.436;2024-03-22T14:43:28;12.80;99.90
5150;DHT22;2593;52.466;13.436;2024-03-22T14:45:54;12.60;99.90
5150;DHT22;2593;52.466;13.436;2024-03-22T14:48:23;12.70;99.90
5150;DHT22;2593;52.466;13.436;2024-03-22T14:50:49;12.60;57.90
5150;DHT22;2593;52.466;13.436;2024-03-22T14:53:16;12.40;71.60
5150;DHT22;2593;52.466;13.436;2024-03-22T14:55:55;12.50;99.90
5150;DHT22;2593;52.466;13.436;2024-03-22T14:58:23;12.50;71.30
5150;DHT22;2593;52.466;13.436;2024-03-22T15:00:55;12.40;99.90
5150;DHT22;2593;52.466;13.436;2024-03-22T15:03:21;12.30;99.90
5150;DHT22;2593;52.466;13.436;2024-03-22T15:05:49;12.40;99.90
5150;DHT22;2593;52.466;13.436;2024-03-22T15:08:15;12.50;99.90
5150;DHT22;2593;52.466;13.436;2024-03-22T15:10:40;12.40;99.90
5150;DHT22;2593;52.466;13.436;2024-03-22T15:13:06;12.50;99.90
5150;DHT22;2593;52.466;13.436;2024-03-22T15:15:32;12.50;99.90
5150;DHT22;2593;52.466;13.436;2024-03-22T15:17:58;12.40;99.90
5150;DHT22;2593;52.466;13.436;2024-03-22T15:20:24;12.40;99.90
5150;DHT22;2593;52.466;13.436;2024-03-22T15:22:50;12.30;99.90
5150;DHT22;2593;52.466;13.436;2024-03-22T15:25:15;12.30;1.00
5150;DHT22;2593;52.466;13.436;2024-03-22T15:27:42;12.20;1.00
5150;DHT22;2593;52.466;13.436;2024-03-22T15:30:08;12.10;97.70
5150;DHT22;2593;52.466;13.436;2024-03-22T15:32:33;12.10;99.90
5150;DHT22;2593;52.466;13.436;2024-03-22T15:34:59;12.00;1.00
5150;DHT22;2593;52.466;13.436;2024-03-22T15:37:24;11.90;1.00
5150;DHT22;2593;52.466;13.436;2024-03-22T15:39:50;12.00;1.00
5150;DHT22;2593;52.466;13.436;2024-03-22T15:42:15;11.90;1.00
5150;DHT22;2593;52.466;13.436;2024-03-22T15:44:41;11.90;1.00
5150;DHT22;2593;52.466;13.436;2024-03-22T15:47:06;12.00;99.90
5150;DHT22;2593;52.466;13.436;2024-03-22T15:49:33;12.00;99.90
5150;DHT22;2593;52.466;13.436;2024-03-22T15:51:59;11.90;1.00
5150;DHT22;2593;52.466;13.436;2024-03-22T15:54:24;11.80;99.90
5150;DHT22;2593;52.466;13.436;2024-03-22T15:56:50;11.80;99.90
5150;DHT22;2593;52.466;13.436;2024-03-22T15:59:15;11.80;99.90
5150;DHT22;2593;52.466;13.436;2024-03-22T16:01:41;11.70;1.00
5150;DHT22;2593;52.466;13.436;2024-03-22T16:04:06;11.70;25.80
5150;DHT22;2593;52.466;13.436;2024-03-22T16:06:32;11.70;99.90
5150;DHT22;2593;52.466;13.436;2024-03-22T16:08:57;11.80;1.00
5150;DHT22;2593;52.466;13.436;2024-03-22T16:11:23;11.80;99.90
5150;DHT22;2593;52.466;13.436;2024-03-22T16:13:49;11.80;1.00
5150;DHT22;2593;52.466;13.436;2024-03-22T16:16:14;11.80;1.00
5150;DHT22;2593;52.466;13.436;2024-03-22T16:18:40;11.70;99.90
5150;DHT22;2593;52.466;13.436;2024-03-22T16:21:05;11.60;1.00
5150;DHT22;2593;52.466;13.436;2024-03-22T16:23:31;11.60;1.00
5150;DHT22;2593;52.466;13.436;2024-03-22T16:25:56;11.60;1.00
5150;DHT22;2593;52.466;13.436;2024-03-22T16:28:22;11.50;99.90
5150;DHT22;2593;52.466;13.436;2024-03-22T16:30:47;11.50;99.90
5150;DHT22;2593;52.466;13.436;2024-03-22T16:33:13;11.50;1.00
5150;DHT22;2593;52.466;13.436;2024-03-22T16:35:38;11.50;1.00
5150;DHT22;2593;52.466;13.436;2024-03-22T16:38:04;11.50;27.50
5150;DHT22;2593;52.466;13.436;2024-03-22T16:40:31;11.40;1.00
5150;DHT22;2593;52.466;13.436;2024-03-22T16:42:56;11.40;99.90
5150;DHT22;2593;52.466;13.436;2024-03-22T16:45:22;11.30;99.90
5150;DHT22;2593;52.466;13.436;2024-03-22T16:47:50;11.30;1.00
5150;DHT22;2593;52.466;13.436;2024-03-22T16:50:16;11.40;1.00
5150;DHT22;2593;52.466;13.436;2024-03-22T16:52:41;11.40;99.90
5150;DHT22;2593;52.466;13.436;2024-03-22T16:55:07;11.30;1.00
5150;DHT22;2593;52.466;13.436;2024-03-22T16:57:36;11.30;1.00
5150;DHT22;2593;52.466;13.436;2024-03-22T17:00:02;11.30;1.00
5150;DHT22;2593;52.466;13.436;2024-03-22T17:02:27;11.30;1.00
5150;DHT22;2593;52.466;13.436;2024-03-22T17:04:53;11.30;1.00
5150;DHT22;2593;52.466;13.436;2024-03-22T17:07:18;11.30;1.00
5150;DHT22;2593;52.466;13.436;2024-03-22T17:09:44;11.20;1.00
5150;DHT22;2593;52.466;13.436;2024-03-22T17:12:10;11.20;1.00
5150;DHT22;2593;52.466;13.436;2024-03-22T17:14:36;11.30;1.00
5150;DHT22;2593;52.466;13.436;2024-03-22T17:17:01;11.20;1.00
5150;DHT22;2593;52.466;13.436;2024-03-22T17:19:27;11.20;85.20
5150;DHT22;2593;52.466;13.436;2024-03-22T17:21:52;11.10;99.90
5150;DHT22;2593;52.466;13.436;2024-03-22T17:24:18;11.10;99.90
5150;DHT22;2593;52.466;13.436;2024-03-22T17:26:44;11.20;99.90
5150;DHT22;2593;52.466;13.436;2024-03-22T17:29:10;11.10;99.90
5150;DHT22;2593;52.466;13.436;2024-03-22T17:31:39;11.10;99.90
5150;DHT22;2593;52.466;13.436;2024-03-22T17:34:04;11.00;99.90
5150;DHT22;2593;52.466;13.436;2024-03-22T17:36:30;11.00;99.90
5150;DHT22;2593;52.466;13.436;2024-03-22T17:38:56;11.00;99.90
5150;DHT22;2593;52.466;13.436;2024-03-22T17:41:22;11.10;99.90
5150;DHT22;2593;52.466;13.436;2024-03-22T17:43:47;10.90;99.90
5150;DHT22;2593;52.466;13.436;2024-03-22T17:46:14;10.90;99.90
5150;DHT22;2593;52.466;13.436;2024-03-22T17:48:40;11.00;99.90
5150;DHT22;2593;52.466;13.436;2024-03-22T17:51:06;11.10;99.90
5150;DHT22;2593;52.466;13.436;2024-03-22T17:53:32;11.00;99.90
5150;DHT22;2593;52.466;13.436;2024-03-22T17:55:57;11.10;99.90
5150;DHT22;2593;52.466;13.436;2024-03-22T17:58:23;11.00;99.90
5150;DHT22;2593;52.466;13.436;2024-03-22T18:00:48;10.90;99.90
5150;DHT22;2593;52.466;13.436;2024-03-22T18:03:14;10.90;99.90
5150;DHT22;2593;52.466;13.436;2024-03-22T18:05:39;10.90;99.90
5150;DHT22;2593;52.466;13.436;2024-03-22T18:08:05;10.90;99.90
5150;DHT22;2593;52.466;13.436;2024-03-22T18:10:30;10.90;99.90
5150;DHT22;2593;52.466;13.436;2024-03-22T18:12:56;10.90;99.90
5150;DHT22;2593;52.466;13.436;2024-03-22T18:15:25;10.90;99.90
5150;DHT22;2593;52.466;13.436;2024-03-22T18:17:50;10.90;99.90
5150;DHT22;2593;52.466;13.436;2024-03-22T18:20:16;10.80;99.90
5150;DHT22;2593;52.466;13.436;2024-03-22T18:22:44;10.90;99.90
5150;DHT22;2593;52.466;13.436;2024-03-22T18:25:10;10.90;99.90
5150;DHT22;2593;52.466;13.436;2024-03-22T18:27:35;10.90;99.90
5150;DHT22;2593;52.466;13.436;2024-03-22T18:30:01;11.00;99.90
5150;DHT22;2593;52.466;13.436;2024-03-22T18:32:26;10.80;99.90
5150;DHT22;2593;52.466;13.436;2024-03-22T18:34:52;10.90;99.90
5150;DHT22;2593;52.466;13.436;2024-03-22T18:37:17;10.80;99.90
5150;DHT22;2593;52.466;13.436;2024-03-22T18:39:44;11.30;99.90
5150;DHT22;2593;52.466;13.436;2024-03-22T18:42:10;10.80;99.90
5150;DHT22;2593;52.466;13.436;2024-03-22T18:44:36;10.80;99.90
5150;DHT22;2593;52.466;13.436;2024-03-22T18:47:05;10.90;99.90
5150;DHT22;2593;52.466;13.436;2024-03-22T18:49:30;10.80;99.90
5150;DHT22;2593;52.466;13.436;2024-03-22T18:51:56;10.90;99.90
5150;DHT22;2593;52.466;13.436;2024-03-22T18:54:21;10.90;99.90
5150;DHT22;2593;52.466;13.436;2024-03-22T18:56:47;10.80;99.90
5150;DHT22;2593;52.466;13.436;2024-03-22T18:59:12;10.80;99.90
5150;DHT22;2593;52.466;13.436;2024-03-22T19:01:38;10.80;99.90
5150;DHT22;2593;52.466;13.436;2024-03-22T19:04:04;10.90;99.90
5150;DHT22;2593;52.466;13.436;2024-03-22T19:06:29;10.80;99.90
5150;DHT22;2593;52.466;13.436;2024-03-22T19:08:55;10.80;99.90
5150;DHT22;2593;52.466;13.436;2024-03-22T19:11:20;10.90;99.90
5150;DHT22;2593;52.466;13.436;2024-03-22T19:13:46;10.90;99.90
5150;DHT22;2593;52.466;13.436;2024-03-22T19:16:11;10.90;99.90
5150;DHT22;2593;52.466;13.436;2024-03-22T19:18:38;11.30;99.90
5150;DHT22;2593;52.466;13.436;2024-03-22T19:21:04;10.90;99.90
5150;DHT22;2593;52.466;13.436;2024-03-22T19:23:29;10.80;99.90
5150;DHT22;2593;52.466;13.436;2024-03-22T19:25:55;10.80;99.90
5150;DHT22;2593;52.466;13.436;2024-03-22T19:28:20;11.00;99.90
5150;DHT22;2593;52.466;13.436;2024-03-22T19:30:50;10.90;99.90
5150;DHT22;2593;52.466;13.436;2024-03-22T19:33:16;10.90;99.90
5150;DHT22;2593;52.466;13.436;2024-03-22T19:35:43;10.90;99.90
5150;DHT22;2593;52.466;13.436;2024-03-22T19:38:09;10.90;99.90
5150;DHT22;2593;52.466;13.436;2024-03-22T19:40:34;10.90;99.90
5150;DHT22;2593;52.466;13.436;2024-03-22T19:43:02;11.00;99.90
5150;DHT22;2593;52.466;13.436;2024-03-22T19:45:28;10.90;99.90
5150;DHT22;2593;52.466;13.436;2024-03-22T19:47:54;10.90;99.90
5150;DHT22;2593;52.466;13.436;2024-03-22T19:50:20;10.90;99.90
5150;DHT22;2593;52.466;13.436;2024-03-22T19:52:45;11.00;99.90
5150;DHT22;2593;52.466;13.436;2024-03-22T19:55:11;11.00;99.90
5150;DHT22;2593;52.466;13.436;2024-03-22T19:57:37;11.10;99.90
5150;DHT22;2593;52.466;13.436;2024-03-22T20:00:03;11.00;99.90
5150;DHT22;2593;52.466;13.436;2024-03-22T20:02:29;10.90;99.90
5150;DHT22;2593;52.466;13.436;2024-03-22T20:04:55;11.10;99.90
5150;DHT22;2593;52.466;13.436;2024-03-22T20:07:20;11.20;99.90
5150;DHT22;2593;52.466;13.436;2024-03-22T20:09:46;11.10;99.90
5150;DHT22;2593;52.466;13.436;2024-03-22T20:12:11;11.30;99.90
5150;DHT22;2593;52.466;13.436;2024-03-22T20:14:37;11.30;99.90
5150;DHT22;2593;52.466;13.436;2024-03-22T20:17:02;11.20;99.90
5150;DHT22;2593;52.466;13.436;2024-03-22T20:19:29;11.10;99.90
5150;DHT22;2593;52.466;13.436;2024-03-22T20:21:54;11.10;99.90
5150;DHT22;2593;52.466;13.436;2024-03-22T20:24:20;10.80;99.90
5150;DHT22;2593;52.466;13.436;2024-03-22T20:26:46;10.90;99.90
5150;DHT22;2593;52.466;13.436;2024-03-22T20:29:12;10.90;99.90
5150;DHT22;2593;52.466;13.436;2024-03-22T20:31:39;11.00;99.90
5150;DHT22;2593;52.466;13.436;2024-03-22T20:34:05;11.10;99.90
5150;DHT22;2593;52.466;13.436;2024-03-22T20:38:57;11.10;99.90
